sensor_id;sensor_type;location;lat;lon;timestamp;pressure;altitude;pressure_sealevel;temperature;humidity
36242;BME280;22283;42.748;12.732;2023-02-14T00:04:46;99936.38;;;-0.30;100.00
36242;BME280;22283;42.748;12.732;2023-02-14T00:09:47;99935.53;;;-0.42;100.00
36242;BME280;22283;42.748;12.732;2023-02-14T00:14:48;99950.25;;;-0.41;100.00
36242;BME280;22283;42.748;12.732;2023-02-14T00:20:07;99948.53;;;-0.55;100.00
36242;BME280;22283;42.748;12.732;2023-02-14T00:25:08;99942.44;;;-0.58;100.00
36242;BME280;22283;42.748;12.732;2023-02-14T00:30:11;99936.38;;;-0.65;100.00
36242;BME280;22283;42.748;12.732;2023-02-14T00:35:12;99936.34;;;-0.72;100.00
36242;BME280;22283;42.748;12.732;2023-02-14T00:40:14;99946.75;;;-0.74;100.00
36242;BME280;22283;42.748;12.732;2023-02-14T00:45:15;99946.75;;;-0.72;100.00
36242;BME280;22283;42.748;12.732;2023-02-14T00:50:18;99944.16;;;-0.79;100.00
36242;BME280;22283;42.748;12.732;2023-02-14T00:55:18;99953.69;;;-0.73;100.00
36242;BME280;22283;42.748;12.732;2023-02-14T01:00:20;99940.69;;;-0.76;100.00
36242;BME280;22283;42.748;12.732;2023-02-14T01:05:21;99932.00;;;-0.89;100.00
36242;BME280;22283;42.748;12.732;2023-02-14T01:10:21;99936.31;;;-0.95;100.00
36242;BME280;22283;42.748;12.732;2023-02-14T01:15:22;99929.41;;;-0.87;100.00
36242;BME280;22283;42.748;12.732;2023-02-14T01:20:23;99932.00;;;-0.96;100.00
36242;BME280;22283;42.748;12.732;2023-02-14T01:25:25;99937.19;;;-1.03;100.00
36242;BME280;22283;42.748;12.732;2023-02-14T01:30:26;99934.53;;;-1.12;100.00
36242;BME280;22283;42.748;12.732;2023-02-14T01:35:27;99931.06;;;-1.20;100.00
36242;BME280;22283;42.748;12.732;2023-02-14T01:40:27;99925.88;;;-1.17;100.00
36242;BME280;22283;42.748;12.732;2023-02-14T01:45:28;99926.72;;;-1.19;100.00
36242;BME280;22283;42.748;12.732;2023-02-14T01:50:35;99915.47;;;-1.23;100.00
36242;BME280;22283;42.748;12.732;2023-02-14T01:55:41;99926.72;;;-1.29;100.00
36242;BME280;22283;42.748;12.732;2023-02-14T02:00:43;99912.84;;;-1.34;100.00
36242;BME280;22283;42.748;12.732;2023-02-14T02:06:22;99915.44;;;-1.32;100.00
36242;BME280;22283;42.748;12.732;2023-02-14T02:11:19;99911.94;;;-1.40;100.00
36242;BME280;22283;42.748;12.732;2023-02-14T02:42:48;99921.41;;;-1.52;100.00
36242;BME280;22283;42.748;12.732;2023-02-14T02:48:19;99920.56;;;-1.54;100.00
36242;BME280;22283;42.748;12.732;2023-02-14T02:53:22;99913.59;;;-1.64;100.00
36242;BME280;22283;42.748;12.732;2023-02-14T02:58:35;99922.25;;;-1.62;100.00
36242;BME280;22283;42.748;12.732;2023-02-14T03:03:39;99912.72;;;-1.66;100.00
36242;BME280;22283;42.748;12.732;2023-02-14T03:14:25;99897.94;;;-1.85;100.00
36242;BME280;22283;42.748;12.732;2023-02-14T03:19:54;99906.59;;;-1.80;100.00
36242;BME280;22283;42.748;12.732;2023-02-14T03:25:30;99904.84;;;-1.84;100.00
36242;BME280;22283;42.748;12.732;2023-02-14T03:30:44;99901.44;;;-1.77;100.00
36242;BME280;22283;42.748;12.732;2023-02-14T03:40:56;99912.59;;;-1.92;100.00
36242;BME280;22283;42.748;12.732;2023-02-14T03:51:42;99896.06;;;-2.08;100.00
36242;BME280;22283;42.748;12.732;2023-02-14T03:56:49;99889.19;;;-2.06;100.00
36242;BME280;22283;42.748;12.732;2023-02-14T04:07:43;99890.03;;;-2.05;100.00
36242;BME280;22283;42.748;12.732;2023-02-14T04:12:45;99892.59;;;-2.10;100.00
36242;BME280;22283;42.748;12.732;2023-02-14T04:17:46;99890.81;;;-2.20;100.00
36242;BME280;22283;42.748;12.732;2023-02-14T04:23:05;99885.53;;;-2.32;100.00
36242;BME280;22283;42.748;12.732;2023-02-14T04:28:06;99881.13;;;-2.42;100.00
36242;BME280;22283;42.748;12.732;2023-02-14T04:33:07;99877.81;;;-2.25;100.00
36242;BME280;22283;42.748;12.732;2023-02-14T04:38:07;99884.72;;;-2.22;100.00
36242;BME280;22283;42.748;12.732;2023-02-14T04:43:08;99879.63;;;-2.13;100.00
36242;BME280;22283;42.748;12.732;2023-02-14T04:48:09;99873.59;;;-2.09;100.00
36242;BME280;22283;42.748;12.732;2023-02-14T04:53:10;99859.72;;;-2.14;100.00
36242;BME280;22283;42.748;12.732;2023-02-14T04:58:10;99847.50;;;-2.30;100.00
36242;BME280;22283;42.748;12.732;2023-02-14T05:03:11;99844.09;;;-2.26;100.00
36242;BME280;22283;42.748;12.732;2023-02-14T05:08:12;99833.66;;;-2.34;100.00
36242;BME280;22283;42.748;12.732;2023-02-14T05:13:13;99848.31;;;-2.42;100.00
36242;BME280;22283;42.748;12.732;2023-02-14T05:18:14;99855.19;;;-2.47;100.00
36242;BME280;22283;42.748;12.732;2023-02-14T05:23:15;99852.56;;;-2.53;100.00
36242;BME280;22283;42.748;12.732;2023-02-14T05:28:18;99853.47;;;-2.47;100.00
36242;BME280;22283;42.748;12.732;2023-02-14T05:33:19;99859.66;;;-2.25;100.00
36242;BME280;22283;42.748;12.732;2023-02-14T05:38:19;99853.53;;;-2.34;100.00
36242;BME280;22283;42.748;12.732;2023-02-14T05:43:20;99856.94;;;-2.44;100.00
36242;BME280;22283;42.748;12.732;2023-02-14T05:48:21;99858.69;;;-2.45;100.00
36242;BME280;22283;42.748;12.732;2023-02-14T05:53:22;99857.03;;;-2.32;100.00
36242;BME280;22283;42.748;12.732;2023-02-14T05:58:23;99853.50;;;-2.39;100.00
36242;BME280;22283;42.748;12.732;2023-02-14T06:03:24;99861.22;;;-2.50;100.00
36242;BME280;22283;42.748;12.732;2023-02-14T06:08:24;99864.59;;;-2.58;100.00
36242;BME280;22283;42.748;12.732;2023-02-14T06:13:25;99875.00;;;-2.55;100.00
36242;BME280;22283;42.748;12.732;2023-02-14T06:18:26;99878.31;;;-2.76;100.00
36242;BME280;22283;42.748;12.732;2023-02-14T06:23:28;99874.88;;;-2.70;100.00
36242;BME280;22283;42.748;12.732;2023-02-14T06:28:29;99880.88;;;-2.76;100.00
36242;BME280;22283;42.748;12.732;2023-02-14T06:33:30;99883.53;;;-2.65;100.00
36242;BME280;22283;42.748;12.732;2023-02-14T06:38:30;99894.78;;;-2.66;100.00
36242;BME280;22283;42.748;12.732;2023-02-14T06:43:31;99888.75;;;-2.64;100.00
36242;BME280;22283;42.748;12.732;2023-02-14T06:48:32;99888.78;;;-2.61;100.00
36242;BME280;22283;42.748;12.732;2023-02-14T06:53:33;99899.19;;;-2.55;100.00
36242;BME280;22283;42.748;12.732;2023-02-14T06:58:33;99885.50;;;-2.35;100.00
36242;BME280;22283;42.748;12.732;2023-02-14T07:03:34;99903.94;;;-1.94;100.00
36242;BME280;22283;42.748;12.732;2023-02-14T07:08:34;99892.81;;;-1.64;100.00
36242;BME280;22283;42.748;12.732;2023-02-14T07:13:35;99904.19;;;-1.28;100.00
36242;BME280;22283;42.748;12.732;2023-02-14T07:18:36;99898.22;;;-0.90;100.00
36242;BME280;22283;42.748;12.732;2023-02-14T07:23:37;99907.75;;;-0.56;100.00
36242;BME280;22283;42.748;12.732;2023-02-14T07:28:37;99901.69;;;-0.24;100.00
36242;BME280;22283;42.748;12.732;2023-02-14T07:33:38;99892.09;;;0.09;100.00
36242;BME280;22283;42.748;12.732;2023-02-14T07:38:38;99892.84;;;0.38;100.00
36242;BME280;22283;42.748;12.732;2023-02-14T07:43:39;99896.28;;;0.56;100.00
36242;BME280;22283;42.748;12.732;2023-02-14T07:48:40;99904.84;;;0.76;100.00
36242;BME280;22283;42.748;12.732;2023-02-14T07:53:40;99890.81;;;1.00;100.00
36242;BME280;22283;42.748;12.732;2023-02-14T07:58:41;99891.53;;;1.20;100.00
36242;BME280;22283;42.748;12.732;2023-02-14T08:03:41;99888.78;;;1.40;100.00
36242;BME280;22283;42.748;12.732;2023-02-14T08:08:45;99874.78;;;1.52;100.00
36242;BME280;22283;42.748;12.732;2023-02-14T08:13:46;99874.72;;;1.60;100.00
36242;BME280;22283;42.748;12.732;2023-02-14T08:18:46;99872.88;;;1.71;100.00
36242;BME280;22283;42.748;12.732;2023-02-14T08:23:47;99863.94;;;1.93;100.00
36242;BME280;22283;42.748;12.732;2023-02-14T08:28:48;99870.72;;;2.11;100.00
36242;BME280;22283;42.748;12.732;2023-02-14T08:33:49;99862.63;;;2.34;99.75
36242;BME280;22283;42.748;12.732;2023-02-14T08:38:49;99870.34;;;2.40;97.01
36242;BME280;22283;42.748;12.732;2023-02-14T08:43:50;99863.19;;;2.58;98.28
36242;BME280;22283;42.748;12.732;2023-02-14T08:48:50;99855.75;;;2.90;95.59
36242;BME280;22283;42.748;12.732;2023-02-14T08:53:56;99845.09;;;3.06;94.41
36242;BME280;22283;42.748;12.732;2023-02-14T08:58:56;99846.53;;;3.25;93.16
36242;BME280;22283;42.748;12.732;2023-02-14T09:03:57;99839.00;;;3.56;91.47
36242;BME280;22283;42.748;12.732;2023-02-14T09:08:57;99841.28;;;3.76;88.30
36242;BME280;22283;42.748;12.732;2023-02-14T09:13:58;99833.84;;;4.00;86.76
36242;BME280;22283;42.748;12.732;2023-02-14T09:18:58;99835.13;;;4.24;84.90
36242;BME280;22283;42.748;12.732;2023-02-14T09:23:59;99839.25;;;4.35;82.64
36242;BME280;22283;42.748;12.732;2023-02-14T09:29:00;99831.16;;;4.48;79.12
36242;BME280;22283;42.748;12.732;2023-02-14T09:34:02;99841.97;;;4.71;79.23
36242;BME280;22283;42.748;12.732;2023-02-14T09:39:21;99828.34;;;4.94;78.98
36242;BME280;22283;42.748;12.732;2023-02-14T09:44:38;99826.13;;;5.14;79.28
36242;BME280;22283;42.748;12.732;2023-02-14T09:49:42;99833.44;;;5.37;78.36
36242;BME280;22283;42.748;12.732;2023-02-14T09:54:47;99834.63;;;5.60;75.38
36242;BME280;22283;42.748;12.732;2023-02-14T10:05:17;99834.72;;;5.89;69.59
36242;BME280;22283;42.748;12.732;2023-02-14T10:15:28;99817.22;;;6.21;68.08
36242;BME280;22283;42.748;12.732;2023-02-14T10:20:57;99809.44;;;6.48;67.16
36242;BME280;22283;42.748;12.732;2023-02-14T10:36:14;99785.25;;;7.21;62.85
36242;BME280;22283;42.748;12.732;2023-02-14T10:41:49;99786.66;;;7.31;61.34
36242;BME280;22283;42.748;12.732;2023-02-14T10:52:37;99768.09;;;7.60;59.40
36242;BME280;22283;42.748;12.732;2023-02-14T10:57:43;99769.22;;;7.78;59.02
36242;BME280;22283;42.748;12.732;2023-02-14T11:02:46;99753.59;;;7.97;59.11
36242;BME280;22283;42.748;12.732;2023-02-14T11:07:50;99750.34;;;8.14;58.33
36242;BME280;22283;42.748;12.732;2023-02-14T11:12:50;99741.53;;;8.38;58.01
36242;BME280;22283;42.748;12.732;2023-02-14T11:23:20;99718.44;;;8.67;55.22
36242;BME280;22283;42.748;12.732;2023-02-14T11:28:21;99718.16;;;8.73;55.45
36242;BME280;22283;42.748;12.732;2023-02-14T11:33:36;99710.91;;;8.78;53.72
36242;BME280;22283;42.748;12.732;2023-02-14T11:38:38;99702.69;;;8.86;53.89
36242;BME280;22283;42.748;12.732;2023-02-14T11:43:42;99691.47;;;9.03;52.12
36242;BME280;22283;42.748;12.732;2023-02-14T11:53:57;99675.09;;;9.15;49.93
36242;BME280;22283;42.748;12.732;2023-02-14T11:59:04;99672.44;;;9.35;50.34
36242;BME280;22283;42.748;12.732;2023-02-14T12:04:12;99674.47;;;9.49;50.77
36242;BME280;22283;42.748;12.732;2023-02-14T12:09:24;99652.94;;;9.58;49.21
36242;BME280;22283;42.748;12.732;2023-02-14T12:14:31;99647.66;;;9.77;48.34
36242;BME280;22283;42.748;12.732;2023-02-14T12:19:49;99644.63;;;9.87;46.29
36242;BME280;22283;42.748;12.732;2023-02-14T12:25:13;99639.69;;;9.98;46.56
36242;BME280;22283;42.748;12.732;2023-02-14T12:30:20;99625.22;;;10.05;47.23
36242;BME280;22283;42.748;12.732;2023-02-14T12:35:28;99607.88;;;10.18;46.44
36242;BME280;22283;42.748;12.732;2023-02-14T12:51:36;99583.28;;;10.52;44.65
36242;BME280;22283;42.748;12.732;2023-02-14T13:12:50;99534.63;;;10.90;43.09
36242;BME280;22283;42.748;12.732;2023-02-14T13:23:39;99516.72;;;10.95;42.73
36242;BME280;22283;42.748;12.732;2023-02-14T13:28:48;99515.69;;;10.97;43.28
36242;BME280;22283;42.748;12.732;2023-02-14T13:33:56;99505.81;;;11.01;43.49
36242;BME280;22283;42.748;12.732;2023-02-14T13:38:58;99510.44;;;11.13;43.43
36242;BME280;22283;42.748;12.732;2023-02-14T13:44:00;99503.41;;;11.12;43.21
36242;BME280;22283;42.748;12.732;2023-02-14T13:49:24;99498.31;;;11.09;43.11
36242;BME280;22283;42.748;12.732;2023-02-14T13:59:34;99478.81;;;11.10;43.98
36242;BME280;22283;42.748;12.732;2023-02-14T14:04:36;99473.38;;;11.13;43.17
36242;BME280;22283;42.748;12.732;2023-02-14T14:25:38;99448.59;;;11.46;43.34
36242;BME280;22283;42.748;12.732;2023-02-14T14:30:42;99442.19;;;11.50;43.12
36242;BME280;22283;42.748;12.732;2023-02-14T14:35:59;99441.81;;;11.56;42.49
36242;BME280;22283;42.748;12.732;2023-02-14T14:41:01;99438.53;;;11.52;42.77
36242;BME280;22283;42.748;12.732;2023-02-14T14:46:02;99434.06;;;11.53;42.73
36242;BME280;22283;42.748;12.732;2023-02-14T14:51:22;99420.03;;;11.51;42.83
36242;BME280;22283;42.748;12.732;2023-02-14T14:56:25;99420.03;;;11.51;43.27
36242;BME280;22283;42.748;12.732;2023-02-14T15:01:30;99415.25;;;11.42;43.59
36242;BME280;22283;42.748;12.732;2023-02-14T15:06:32;99414.06;;;11.31;44.04
36242;BME280;22283;42.748;12.732;2023-02-14T15:11:33;99409.59;;;11.16;44.53
36242;BME280;22283;42.748;12.732;2023-02-14T15:17:01;99414.66;;;11.05;44.50
36242;BME280;22283;42.748;12.732;2023-02-14T15:22:24;99411.75;;;10.94;45.22
36242;BME280;22283;42.748;12.732;2023-02-14T15:27:26;99420.50;;;10.78;45.81
36242;BME280;22283;42.748;12.732;2023-02-14T15:32:33;99421.47;;;10.60;46.28
36242;BME280;22283;42.748;12.732;2023-02-14T15:37:34;99423.09;;;10.29;48.09
36242;BME280;22283;42.748;12.732;2023-02-14T15:42:39;99421.00;;;10.00;48.92
36242;BME280;22283;42.748;12.732;2023-02-14T15:47:45;99432.50;;;9.81;49.17
36242;BME280;22283;42.748;12.732;2023-02-14T15:52:47;99426.38;;;9.62;49.47
36242;BME280;22283;42.748;12.732;2023-02-14T15:57:57;99425.28;;;9.49;50.36
36242;BME280;22283;42.748;12.732;2023-02-14T16:03:11;99416.16;;;9.18;51.88
36242;BME280;22283;42.748;12.732;2023-02-14T16:13:36;99422.25;;;8.62;54.38
36242;BME280;22283;42.748;12.732;2023-02-14T16:18:51;99430.81;;;8.26;56.34
36242;BME280;22283;42.748;12.732;2023-02-14T16:24:10;99424.69;;;7.85;57.91
36242;BME280;22283;42.748;12.732;2023-02-14T16:29:13;99438.16;;;7.55;59.53
36242;BME280;22283;42.748;12.732;2023-02-14T16:34:15;99436.91;;;7.20;61.22
36242;BME280;22283;42.748;12.732;2023-02-14T16:39:19;99427.97;;;7.02;61.81
36242;BME280;22283;42.748;12.732;2023-02-14T16:44:20;99422.63;;;6.80;62.96
36242;BME280;22283;42.748;12.732;2023-02-14T16:49:22;99424.66;;;6.49;64.52
36242;BME280;22283;42.748;12.732;2023-02-14T16:54:23;99436.72;;;6.29;65.90
36242;BME280;22283;42.748;12.732;2023-02-14T16:59:37;99438.91;;;6.18;66.42
36242;BME280;22283;42.748;12.732;2023-02-14T17:04:39;99447.78;;;5.87;67.83
36242;BME280;22283;42.748;12.732;2023-02-14T17:09:43;99444.44;;;5.56;69.90
36242;BME280;22283;42.748;12.732;2023-02-14T17:14:49;99449.84;;;5.50;70.66
36242;BME280;22283;42.748;12.732;2023-02-14T17:19:51;99454.88;;;5.29;71.93
36242;BME280;22283;42.748;12.732;2023-02-14T17:24:54;99455.06;;;5.23;71.11
36242;BME280;22283;42.748;12.732;2023-02-14T17:29:55;99455.47;;;5.39;70.69
36242;BME280;22283;42.748;12.732;2023-02-14T17:34:56;99461.03;;;5.56;68.96
36242;BME280;22283;42.748;12.732;2023-02-14T17:39:57;99462.75;;;5.29;70.79
36242;BME280;22283;42.748;12.732;2023-02-14T17:44:57;99459.06;;;5.07;72.10
36242;BME280;22283;42.748;12.732;2023-02-14T17:49:58;99464.91;;;4.85;73.21
36242;BME280;22283;42.748;12.732;2023-02-14T17:54:59;99465.97;;;4.78;73.27
36242;BME280;22283;42.748;12.732;2023-02-14T18:00:00;99469.69;;;4.40;74.92
36242;BME280;22283;42.748;12.732;2023-02-14T18:05:01;99475.19;;;4.29;76.64
36242;BME280;22283;42.748;12.732;2023-02-14T18:10:03;99470.41;;;4.11;77.83
36242;BME280;22283;42.748;12.732;2023-02-14T18:15:04;99468.91;;;4.02;78.54
36242;BME280;22283;42.748;12.732;2023-02-14T18:20:05;99463.84;;;3.96;79.42
36242;BME280;22283;42.748;12.732;2023-02-14T18:25:06;99471.09;;;3.83;80.22
36242;BME280;22283;42.748;12.732;2023-02-14T18:30:07;99470.31;;;3.81;80.02
36242;BME280;22283;42.748;12.732;2023-02-14T18:35:08;99463.63;;;3.68;80.82
36242;BME280;22283;42.748;12.732;2023-02-14T18:40:09;99472.66;;;3.55;81.70
36242;BME280;22283;42.748;12.732;2023-02-14T18:45:11;99472.94;;;3.42;82.43
36242;BME280;22283;42.748;12.732;2023-02-14T18:50:11;99478.91;;;3.49;82.69
36242;BME280;22283;42.748;12.732;2023-02-14T18:55:12;99475.63;;;3.41;82.19
36242;BME280;22283;42.748;12.732;2023-02-14T19:00:13;99475.06;;;3.27;83.67
36242;BME280;22283;42.748;12.732;2023-02-14T19:05:15;99472.72;;;3.14;85.36
36242;BME280;22283;42.748;12.732;2023-02-14T19:10:15;99467.47;;;3.14;84.75
36242;BME280;22283;42.748;12.732;2023-02-14T19:15:16;99463.31;;;3.06;86.20
36242;BME280;22283;42.748;12.732;2023-02-14T19:20:18;99473.84;;;3.03;85.96
36242;BME280;22283;42.748;12.732;2023-02-14T19:25:19;99469.72;;;2.91;86.75
36242;BME280;22283;42.748;12.732;2023-02-14T19:30:19;99487.28;;;2.84;88.15
36242;BME280;22283;42.748;12.732;2023-02-14T19:35:20;99489.81;;;2.87;87.11
36242;BME280;22283;42.748;12.732;2023-02-14T19:40:21;99495.34;;;2.72;88.49
36242;BME280;22283;42.748;12.732;2023-02-14T19:45:21;99495.50;;;2.66;88.58
36242;BME280;22283;42.748;12.732;2023-02-14T19:50:22;99486.81;;;2.64;88.50
36242;BME280;22283;42.748;12.732;2023-02-14T19:55:23;99485.03;;;2.66;88.56
36242;BME280;22283;42.748;12.732;2023-02-14T20:00:24;99483.38;;;2.62;88.73
36242;BME280;22283;42.748;12.732;2023-02-14T20:05:24;99490.50;;;2.54;89.30
36242;BME280;22283;42.748;12.732;2023-02-14T20:10:25;99495.72;;;2.54;88.98
36242;BME280;22283;42.748;12.732;2023-02-14T20:15:26;99498.31;;;2.55;89.76
36242;BME280;22283;42.748;12.732;2023-02-14T20:20:28;99483.47;;;2.56;89.20
36242;BME280;22283;42.748;12.732;2023-02-14T20:25:49;99496.44;;;2.62;88.25
36242;BME280;22283;42.748;12.732;2023-02-14T20:30:50;99483.25;;;2.68;87.16
36242;BME280;22283;42.748;12.732;2023-02-14T20:35:50;99494.06;;;2.50;88.04
36242;BME280;22283;42.748;12.732;2023-02-14T20:40:51;99487.38;;;2.33;90.52
36242;BME280;22283;42.748;12.732;2023-02-14T20:45:51;99495.78;;;2.51;93.05
36242;BME280;22283;42.748;12.732;2023-02-14T20:50:57;99498.44;;;2.47;92.09
36242;BME280;22283;42.748;12.732;2023-02-14T20:55:57;99491.72;;;2.34;91.86
36242;BME280;22283;42.748;12.732;2023-02-14T21:01:09;99487.31;;;2.36;90.14
36242;BME280;22283;42.748;12.732;2023-02-14T21:06:13;99487.31;;;2.36;88.29
36242;BME280;22283;42.748;12.732;2023-02-14T21:11:16;99481.41;;;2.27;88.64
36242;BME280;22283;42.748;12.732;2023-02-14T21:16:18;99490.34;;;2.15;88.98
36242;BME280;22283;42.748;12.732;2023-02-14T21:21:26;99475.59;;;2.11;88.14
36242;BME280;22283;42.748;12.732;2023-02-14T21:26:31;99475.78;;;2.00;89.55
36242;BME280;22283;42.748;12.732;2023-02-14T21:31:32;99460.09;;;2.02;89.04
36242;BME280;22283;42.748;12.732;2023-02-14T21:36:34;99476.69;;;1.99;88.63
36242;BME280;22283;42.748;12.732;2023-02-14T21:41:37;99471.50;;;1.96;89.18
36242;BME280;22283;42.748;12.732;2023-02-14T21:46:38;99466.53;;;1.82;89.30
36242;BME280;22283;42.748;12.732;2023-02-14T21:51:40;99466.56;;;1.79;88.82
36242;BME280;22283;42.748;12.732;2023-02-14T21:56:42;99468.22;;;1.85;88.67
36242;BME280;22283;42.748;12.732;2023-02-14T22:01:43;99474.38;;;1.81;89.19
36242;BME280;22283;42.748;12.732;2023-02-14T22:06:43;99471.06;;;1.71;88.73
36242;BME280;22283;42.748;12.732;2023-02-14T22:11:44;99474.53;;;1.70;88.04
36242;BME280;22283;42.748;12.732;2023-02-14T22:16:48;99462.38;;;1.69;86.09
36242;BME280;22283;42.748;12.732;2023-02-14T22:21:48;99462.22;;;1.78;84.94
36242;BME280;22283;42.748;12.732;2023-02-14T22:26:49;99470.25;;;1.67;84.44
36242;BME280;22283;42.748;12.732;2023-02-14T22:31:50;99469.50;;;1.58;84.65
36242;BME280;22283;42.748;12.732;2023-02-14T22:36:50;99463.53;;;1.50;85.90
36242;BME280;22283;42.748;12.732;2023-02-14T22:41:51;99468.75;;;1.50;86.49
36242;BME280;22283;42.748;12.732;2023-02-14T22:46:52;99473.16;;;1.46;86.19
36242;BME280;22283;42.748;12.732;2023-02-14T22:51:52;99462.94;;;1.32;88.28
36242;BME280;22283;42.748;12.732;2023-02-14T22:56:53;99464.59;;;1.39;89.63
36242;BME280;22283;42.748;12.732;2023-02-14T23:01:54;99461.91;;;1.42;88.69
36242;BME280;22283;42.748;12.732;2023-02-14T23:06:55;99466.44;;;1.31;88.53
36242;BME280;22283;42.748;12.732;2023-02-14T23:11:55;99463.22;;;1.11;89.54
36242;BME280;22283;42.748;12.732;2023-02-14T23:16:56;99449.34;;;1.12;89.81
36242;BME280;22283;42.748;12.732;2023-02-14T23:27:23;99456.25;;;1.13;88.06
36242;BME280;22283;42.748;12.732;2023-02-14T23:32:25;99444.22;;;1.03;87.68
36242;BME280;22283;42.748;12.732;2023-02-14T23:37:26;99444.16;;;1.09;87.34
36242;BME280;22283;42.748;12.732;2023-02-14T23:42:27;99437.44;;;0.92;87.97
36242;BME280;22283;42.748;12.732;2023-02-14T23:47:27;99435.84;;;0.79;90.48
36242;BME280;22283;42.748;12.732;2023-02-14T23:52:28;99437.63;;;0.77;90.82
36242;BME280;22283;42.748;12.732;2023-02-14T23:57:29;99435.97;;;0.70;90.62
